createdAt,value
2023-05-21T00:00:12.518Z,1006.73
2023-05-21T00:00:43.022Z,1006.71
2023-05-21T00:01:13.518Z,1006.71
2023-05-21T00:01:44.010Z,1006.73
2023-05-21T00:02:14.505Z,1006.72
2023-05-21T00:02:45.071Z,1006.75
2023-05-21T00:03:15.694Z,1006.75
2023-05-21T00:03:46.492Z,1006.77
2023-05-21T00:04:17.002Z,1006.74
2023-05-21T00:04:47.642Z,1006.74
2023-05-21T00:05:18.123Z,1006.73
2023-05-21T00:05:48.644Z,1006.75
2023-05-21T00:06:19.182Z,1006.75
2023-05-21T00:06:49.669Z,1006.71
2023-05-21T00:07:20.184Z,1006.76
2023-05-21T00:07:50.692Z,1006.75
2023-05-21T00:08:21.211Z,1006.76
2023-05-21T00:08:51.699Z,1006.74
2023-05-21T00:09:22.214Z,1006.76
2023-05-21T00:09:52.777Z,1006.74
2023-05-21T00:10:23.310Z,1006.76
2023-05-21T00:10:53.854Z,1006.74
2023-05-21T00:11:24.346Z,1006.69
2023-05-21T00:11:54.859Z,1006.71
2023-05-21T00:12:25.370Z,1006.69
2023-05-21T00:12:55.873Z,1006.69
2023-05-21T00:13:26.394Z,1006.68
2023-05-21T00:13:56.898Z,1006.70
2023-05-21T00:14:27.907Z,1006.70
2023-05-21T00:14:58.483Z,1006.65
2023-05-21T00:15:28.962Z,1006.64
2023-05-21T00:15:59.493Z,1006.63
2023-05-21T00:16:30.499Z,1006.62
2023-05-21T00:17:00.954Z,1006.65
2023-05-21T00:17:31.475Z,1006.62
2023-05-21T00:18:02.015Z,1006.58
2023-05-21T00:18:32.578Z,1006.58
2023-05-21T00:19:03.101Z,1006.57
2023-05-21T00:19:33.570Z,1006.61
2023-05-21T00:20:04.171Z,1006.62
2023-05-21T00:20:34.699Z,1006.59
2023-05-21T00:21:05.193Z,1006.57
2023-05-21T00:21:36.195Z,1006.55
2023-05-21T00:22:07.200Z,1006.55
2023-05-21T00:22:37.705Z,1006.58
2023-05-21T00:23:08.691Z,1006.57
2023-05-21T00:23:39.704Z,1006.61
2023-05-21T00:24:10.191Z,1006.55
2023-05-21T00:24:40.698Z,1006.55
2023-05-21T00:25:11.812Z,1006.54
2023-05-21T00:25:42.328Z,1006.51
2023-05-21T00:26:12.843Z,1006.52
2023-05-21T00:26:43.370Z,1006.50
2023-05-21T00:27:13.856Z,1006.51
2023-05-21T00:27:44.858Z,1006.55
2023-05-21T00:28:15.365Z,1006.48
2023-05-21T00:28:46.122Z,1006.49
2023-05-21T00:29:16.673Z,1006.51
2023-05-21T00:29:47.148Z,1006.51
2023-05-21T00:30:17.721Z,1006.51
2023-05-21T00:30:48.214Z,1006.52
2023-05-21T00:31:18.772Z,1006.51
2023-05-21T00:31:49.236Z,1006.53
2023-05-21T00:32:19.814Z,1006.51
2023-05-21T00:32:50.350Z,1006.48
2023-05-21T00:33:20.815Z,1006.48
2023-05-21T00:33:51.319Z,1006.51
2023-05-21T00:34:21.811Z,1006.48
2023-05-21T00:34:52.330Z,1006.44
2023-05-21T00:35:23.362Z,1006.49
2023-05-21T00:35:53.865Z,1006.47
2023-05-21T00:36:24.379Z,1006.49
2023-05-21T00:36:54.877Z,1006.44
2023-05-21T00:37:25.398Z,1006.46
2023-05-21T00:37:55.915Z,1006.43
2023-05-21T00:38:26.415Z,1006.44
2023-05-21T00:38:56.911Z,1006.43
2023-05-21T00:39:27.407Z,1006.46
2023-05-21T00:39:58.482Z,1006.45
2023-05-21T00:40:28.520Z,1006.44
2023-05-21T00:40:59.029Z,1006.45
2023-05-21T00:41:29.539Z,1006.43
2023-05-21T00:42:00.518Z,1006.44
2023-05-21T00:42:31.532Z,1006.45
2023-05-21T00:43:02.078Z,1006.40
2023-05-21T00:43:33.061Z,1006.41
2023-05-21T00:44:04.049Z,1006.38
2023-05-21T00:44:35.057Z,1006.38
2023-05-21T00:45:05.552Z,1006.42
2023-05-21T00:45:36.327Z,1006.35
2023-05-21T00:46:06.962Z,1006.36
2023-05-21T00:46:37.487Z,1006.37
2023-05-21T00:47:08.491Z,1006.37
2023-05-21T00:47:39.017Z,1006.38
2023-05-21T00:48:09.523Z,1006.36
2023-05-21T00:48:40.040Z,1006.34
2023-05-21T00:49:10.573Z,1006.34
2023-05-21T00:49:41.079Z,1006.34
2023-05-21T00:50:11.584Z,1006.33
2023-05-21T00:50:42.148Z,1006.34
2023-05-21T00:51:12.651Z,1006.34
2023-05-21T00:51:43.652Z,1006.32
2023-05-21T00:52:14.158Z,1006.32
2023-05-21T00:52:45.162Z,1006.32
2023-05-21T00:53:15.729Z,1006.33
2023-05-21T00:53:46.189Z,1006.34
2023-05-21T00:54:16.684Z,1006.31
2023-05-21T00:54:47.201Z,1006.31
2023-05-21T00:55:17.720Z,1006.31
2023-05-21T00:55:48.240Z,1006.32
2023-05-21T00:56:18.754Z,1006.30
2023-05-21T00:56:49.266Z,1006.29
2023-05-21T00:57:19.774Z,1006.30
2023-05-21T00:57:50.804Z,1006.29
2023-05-21T00:58:21.281Z,1006.30
2023-05-21T00:58:51.936Z,1006.26
2023-05-21T00:59:22.437Z,1006.29
2023-05-21T00:59:52.958Z,1006.28
2023-05-21T01:00:23.462Z,1006.28
2023-05-21T01:00:54.032Z,1006.29
2023-05-21T01:01:24.532Z,1006.27
2023-05-21T01:01:55.006Z,1006.28
2023-05-21T01:02:26.064Z,1006.27
2023-05-21T01:02:56.716Z,1006.28
2023-05-21T01:03:27.359Z,1006.27
2023-05-21T01:03:58.081Z,1006.25
2023-05-21T01:04:28.561Z,1006.23
2023-05-21T01:04:59.061Z,1006.25
2023-05-21T01:05:30.064Z,1006.25
2023-05-21T01:06:01.106Z,1006.24
2023-05-21T01:06:31.618Z,1006.24
2023-05-21T01:07:02.137Z,1006.28
2023-05-21T01:07:32.647Z,1006.24
2023-05-21T01:08:03.135Z,1006.24
2023-05-21T01:08:34.132Z,1006.29
2023-05-21T01:09:05.518Z,1006.25
2023-05-21T01:09:36.034Z,1006.30
2023-05-21T01:10:06.528Z,1006.28
2023-05-21T01:10:37.024Z,1006.28
2023-05-21T01:11:08.110Z,1006.30
2023-05-21T01:11:38.631Z,1006.27
2023-05-21T01:12:09.124Z,1006.34
2023-05-21T01:12:40.126Z,1006.33
2023-05-21T01:13:10.640Z,1006.32
2023-05-21T01:13:41.170Z,1006.28
2023-05-21T01:14:11.662Z,1006.31
2023-05-21T01:14:42.172Z,1006.27
2023-05-21T01:15:12.686Z,1006.32
2023-05-21T01:15:43.201Z,1006.32
2023-05-21T01:16:13.875Z,1006.31
2023-05-21T01:16:44.413Z,1006.32
2023-05-21T01:17:15.010Z,1006.30
2023-05-21T01:17:45.507Z,1006.35
2023-05-21T01:18:16.100Z,1006.28
2023-05-21T01:18:46.801Z,1006.28
2023-05-21T01:19:17.401Z,1006.26
2023-05-21T01:19:47.947Z,1006.29
2023-05-21T01:20:18.905Z,1006.26
2023-05-21T01:20:49.436Z,1006.27
2023-05-21T01:21:20.029Z,1006.24
2023-05-21T01:21:50.519Z,1006.29
2023-05-21T01:22:21.044Z,1006.26
2023-05-21T01:22:51.536Z,1006.22
2023-05-21T01:23:22.539Z,1006.25
2023-05-21T01:23:53.046Z,1006.26
2023-05-21T01:24:24.056Z,1006.22
2023-05-21T01:24:54.554Z,1006.21
2023-05-21T01:25:25.577Z,1006.20
2023-05-21T01:25:56.080Z,1006.18
2023-05-21T01:26:26.691Z,1006.21
2023-05-21T01:26:57.195Z,1006.23
2023-05-21T01:27:27.701Z,1006.21
2023-05-21T01:27:58.707Z,1006.26
2023-05-21T01:28:29.235Z,1006.21
2023-05-21T01:28:59.748Z,1006.20
2023-05-21T01:29:30.251Z,1006.18
2023-05-21T01:30:00.760Z,1006.15
2023-05-21T01:30:31.765Z,1006.15
2023-05-21T01:31:02.267Z,1006.15
2023-05-21T01:31:32.788Z,1006.18
2023-05-21T01:32:03.271Z,1006.16
2023-05-21T01:32:34.436Z,1006.21
2023-05-21T01:33:05.064Z,1006.17
2023-05-21T01:33:35.630Z,1006.17
2023-05-21T01:34:06.147Z,1006.16
2023-05-21T01:34:36.810Z,1006.17
2023-05-21T01:35:07.321Z,1006.19
2023-05-21T01:35:38.042Z,1006.15
2023-05-21T01:36:08.807Z,1006.15
2023-05-21T01:36:39.332Z,1006.17
2023-05-21T01:37:09.846Z,1006.16
2023-05-21T01:37:40.348Z,1006.17
2023-05-21T01:38:10.873Z,1006.15
2023-05-21T01:38:41.421Z,1006.13
2023-05-21T01:39:11.923Z,1006.12
2023-05-21T01:39:42.432Z,1006.18
2023-05-21T01:40:13.420Z,1006.10
2023-05-21T01:40:43.926Z,1006.10
2023-05-21T01:41:14.435Z,1006.10
2023-05-21T01:41:45.476Z,1006.11
2023-05-21T01:42:16.030Z,1006.10
2023-05-21T01:42:46.511Z,1006.10
2023-05-21T01:43:17.007Z,1006.12
2023-05-21T01:43:47.530Z,1006.12
2023-05-21T01:44:18.009Z,1006.11
2023-05-21T01:44:48.520Z,1006.10
2023-05-21T01:45:19.019Z,1006.10
2023-05-21T01:45:49.544Z,1006.11
2023-05-21T01:46:20.139Z,1006.09
2023-05-21T01:46:50.765Z,1006.11
2023-05-21T01:47:21.331Z,1006.07
2023-05-21T01:47:51.894Z,1006.06
2023-05-21T01:48:22.403Z,1006.07
2023-05-21T01:48:52.900Z,1006.08
2023-05-21T01:49:23.402Z,1006.10
2023-05-21T01:49:53.932Z,1006.11
2023-05-21T01:50:24.439Z,1006.08
2023-05-21T01:50:54.939Z,1006.07
2023-05-21T01:51:25.458Z,1006.07
2023-05-21T01:51:55.976Z,1006.04
2023-05-21T01:52:26.493Z,1006.04
2023-05-21T01:52:57.480Z,1006.08
2023-05-21T01:53:28.494Z,1006.03
2023-05-21T01:53:58.998Z,1006.04
2023-05-21T01:54:29.519Z,1006.06
2023-05-21T01:55:00.512Z,1006.03
2023-05-21T01:55:31.025Z,1006.00
2023-05-21T01:56:01.527Z,1006.02
2023-05-21T01:56:32.529Z,1006.02
2023-05-21T01:57:03.607Z,1006.01
2023-05-21T01:57:34.098Z,1006.04
2023-05-21T01:58:04.603Z,1006.05
2023-05-21T01:58:35.124Z,1006.00
2023-05-21T01:59:05.645Z,1006.02
2023-05-21T01:59:36.151Z,1006.01
2023-05-21T02:00:06.654Z,1006.01
2023-05-21T02:00:37.652Z,1005.99
2023-05-21T02:01:08.162Z,1005.98
2023-05-21T02:01:38.677Z,1005.97
2023-05-21T02:02:09.858Z,1005.99
2023-05-21T02:02:40.414Z,1005.96
2023-05-21T02:03:11.086Z,1005.96
2023-05-21T02:03:41.706Z,1005.96
2023-05-21T02:04:12.318Z,1005.95
2023-05-21T02:04:42.807Z,1005.95
2023-05-21T02:05:13.323Z,1005.94
2023-05-21T02:05:43.903Z,1005.96
2023-05-21T02:06:14.407Z,1005.95
2023-05-21T02:06:44.920Z,1005.96
2023-05-21T02:07:15.465Z,1005.96
2023-05-21T02:07:45.974Z,1005.96
2023-05-21T02:08:16.523Z,1005.94
2023-05-21T02:08:47.047Z,1005.91
2023-05-21T02:09:17.538Z,1005.95
2023-05-21T02:09:48.551Z,1005.97
2023-05-21T02:10:19.083Z,1005.95
2023-05-21T02:10:49.622Z,1005.94
2023-05-21T02:11:20.621Z,1005.97
2023-05-21T02:11:51.144Z,1005.94
2023-05-21T02:12:21.651Z,1005.93
2023-05-21T02:12:52.183Z,1005.95
2023-05-21T02:13:25.826Z,1005.93
2023-05-21T02:13:53.333Z,1005.93
2023-05-21T02:14:23.829Z,1005.93
2023-05-21T02:14:54.330Z,1005.92
2023-05-21T02:15:24.827Z,1005.94
2023-05-21T02:15:55.864Z,1005.91
2023-05-21T02:16:26.407Z,1005.93
2023-05-21T02:16:56.900Z,1005.92
2023-05-21T02:17:27.565Z,1005.92
2023-05-21T02:17:58.047Z,1005.92
2023-05-21T02:18:28.608Z,1005.92
2023-05-21T02:18:59.136Z,1005.93
2023-05-21T02:19:30.430Z,1005.91
2023-05-21T02:20:01.043Z,1005.91
2023-05-21T02:20:31.570Z,1005.87
2023-05-21T02:21:02.075Z,1005.92
2023-05-21T02:21:32.568Z,1005.90
2023-05-21T02:22:03.565Z,1005.89
2023-05-21T02:22:34.624Z,1005.87
2023-05-21T02:23:05.129Z,1005.90
2023-05-21T02:23:35.645Z,1005.89
2023-05-21T02:24:06.182Z,1005.90
2023-05-21T02:24:36.673Z,1005.89
2023-05-21T02:25:07.674Z,1005.90
2023-05-21T02:25:38.500Z,1005.90
2023-05-21T02:26:09.032Z,1005.91
2023-05-21T02:26:39.531Z,1005.91
2023-05-21T02:27:10.038Z,1005.91
2023-05-21T02:27:41.083Z,1005.92
2023-05-21T02:28:11.592Z,1005.93
2023-05-21T02:28:42.603Z,1005.90
2023-05-21T02:29:13.126Z,1005.93
2023-05-21T02:29:43.630Z,1005.92
2023-05-21T02:30:14.616Z,1005.90
2023-05-21T02:30:45.613Z,1005.91
2023-05-21T02:31:16.462Z,1005.87
2023-05-21T02:31:46.969Z,1005.86
2023-05-21T02:32:17.489Z,1005.85
2023-05-21T02:32:48.205Z,1005.83
2023-05-21T02:33:18.644Z,1005.86
2023-05-21T02:33:49.301Z,1005.85
2023-05-21T02:34:19.917Z,1005.83
2023-05-21T02:34:50.437Z,1005.80
2023-05-21T02:35:20.939Z,1005.78
2023-05-21T02:35:51.467Z,1005.80
2023-05-21T02:36:21.967Z,1005.79
2023-05-21T02:36:52.537Z,1005.76
2023-05-21T02:37:22.998Z,1005.79
2023-05-21T02:37:54.069Z,1005.81
2023-05-21T02:38:24.574Z,1005.81
2023-05-21T02:38:55.080Z,1005.79
2023-05-21T02:39:25.591Z,1005.82
2023-05-21T02:39:56.094Z,1005.82
2023-05-21T02:40:26.613Z,1005.82
2023-05-21T02:40:57.119Z,1005.81
2023-05-21T02:41:27.641Z,1005.82
2023-05-21T02:41:58.217Z,1005.83
2023-05-21T02:42:29.234Z,1005.83
2023-05-21T02:42:59.811Z,1005.83
2023-05-21T02:43:30.313Z,1005.81
2023-05-21T02:44:00.836Z,1005.82
2023-05-21T02:44:31.352Z,1005.83
2023-05-21T02:45:01.857Z,1005.83
2023-05-21T02:45:32.893Z,1005.82
2023-05-21T02:46:03.445Z,1005.82
2023-05-21T02:46:33.973Z,1005.83
2023-05-21T02:47:04.482Z,1005.79
2023-05-21T02:47:35.040Z,1005.84
2023-05-21T02:48:05.643Z,1005.83
2023-05-21T02:48:36.142Z,1005.81
2023-05-21T02:49:06.652Z,1005.82
2023-05-21T02:49:37.644Z,1005.81
2023-05-21T02:50:08.661Z,1005.81
2023-05-21T02:50:39.183Z,1005.79
2023-05-21T02:51:09.667Z,1005.80
2023-05-21T02:51:40.181Z,1005.80
2023-05-21T02:52:10.692Z,1005.79
2023-05-21T02:52:41.187Z,1005.79
2023-05-21T02:53:12.293Z,1005.80
2023-05-21T02:53:42.810Z,1005.80
2023-05-21T02:54:13.315Z,1005.80
2023-05-21T02:54:43.815Z,1005.81
2023-05-21T02:55:14.326Z,1005.83
2023-05-21T02:55:44.847Z,1005.83
2023-05-21T02:56:15.350Z,1005.82
2023-05-21T02:56:46.210Z,1005.83
2023-05-21T02:57:16.727Z,1005.83
2023-05-21T02:57:47.251Z,1005.84
2023-05-21T02:58:17.818Z,1005.84
2023-05-21T02:58:48.318Z,1005.85
2023-05-21T02:59:18.828Z,1005.83
2023-05-21T02:59:49.335Z,1005.85
2023-05-21T03:00:19.844Z,1005.88
2023-05-21T03:00:50.848Z,1005.83
2023-05-21T03:01:21.410Z,1005.83
2023-05-21T03:01:51.912Z,1005.82
2023-05-21T03:02:22.844Z,1005.86
2023-05-21T03:02:53.549Z,1005.83
2023-05-21T03:03:24.187Z,1005.80
2023-05-21T03:03:54.674Z,1005.86
2023-05-21T03:04:25.682Z,1005.85
2023-05-21T03:04:56.206Z,1005.81
2023-05-21T03:05:26.718Z,1005.79
2023-05-21T03:05:57.221Z,1005.85
2023-05-21T03:06:27.725Z,1005.82
2023-05-21T03:06:58.220Z,1005.83
2023-05-21T03:07:28.740Z,1005.80
2023-05-21T03:07:59.253Z,1005.81
2023-05-21T03:08:29.771Z,1005.82
2023-05-21T03:09:00.269Z,1005.82
2023-05-21T03:09:30.760Z,1005.83
2023-05-21T03:10:01.266Z,1005.82
2023-05-21T03:10:31.779Z,1005.86
2023-05-21T03:11:02.304Z,1005.84
2023-05-21T03:11:32.806Z,1005.85
2023-05-21T03:12:03.327Z,1005.83
2023-05-21T03:12:33.832Z,1005.84
2023-05-21T03:13:04.386Z,1005.87
2023-05-21T03:13:34.996Z,1005.88
2023-05-21T03:14:05.540Z,1005.86
2023-05-21T03:14:36.543Z,1005.87
2023-05-21T03:15:07.038Z,1005.86
2023-05-21T03:15:38.175Z,1005.88
2023-05-21T03:16:08.819Z,1005.84
2023-05-21T03:16:39.340Z,1005.82
2023-05-21T03:17:09.857Z,1005.84
2023-05-21T03:17:40.421Z,1005.86
2023-05-21T03:18:11.002Z,1005.82
2023-05-21T03:18:41.586Z,1005.85
2023-05-21T03:19:12.058Z,1005.81
2023-05-21T03:19:43.030Z,1005.79
2023-05-21T03:20:13.523Z,1005.82
2023-05-21T03:20:44.539Z,1005.82
2023-05-21T03:21:15.037Z,1005.84
2023-05-21T03:21:46.033Z,1005.85
2023-05-21T03:22:17.041Z,1005.81
2023-05-21T03:22:47.543Z,1005.83
2023-05-21T03:23:18.550Z,1005.82
2023-05-21T03:23:49.100Z,1005.82
2023-05-21T03:24:19.594Z,1005.82
2023-05-21T03:24:50.599Z,1005.84
2023-05-21T03:25:21.655Z,1005.83
2023-05-21T03:25:52.128Z,1005.83
2023-05-21T03:26:23.126Z,1005.82
2023-05-21T03:26:53.636Z,1005.85
2023-05-21T03:27:24.144Z,1005.86
2023-05-21T03:27:54.663Z,1005.87
2023-05-21T03:28:25.169Z,1005.89
2023-05-21T03:28:56.233Z,1005.88
2023-05-21T03:29:26.726Z,1005.88
2023-05-21T03:29:57.718Z,1005.92
2023-05-21T03:30:28.722Z,1005.92
2023-05-21T03:30:59.723Z,1005.90
2023-05-21T03:31:30.255Z,1005.91
2023-05-21T03:32:00.832Z,1005.91
2023-05-21T03:32:31.377Z,1005.92
2023-05-21T03:33:01.890Z,1005.91
2023-05-21T03:33:32.364Z,1005.94
2023-05-21T03:34:03.389Z,1005.91
2023-05-21T03:34:33.880Z,1005.94
2023-05-21T03:35:04.383Z,1005.91
2023-05-21T03:35:35.116Z,1005.92
2023-05-21T03:36:05.688Z,1005.98
2023-05-21T03:36:36.173Z,1005.97
2023-05-21T03:37:07.188Z,1005.97
2023-05-21T03:37:37.680Z,1005.98
2023-05-21T03:38:08.190Z,1006.01
2023-05-21T03:38:39.180Z,1006.00
2023-05-21T03:39:10.322Z,1006.00
2023-05-21T03:39:40.842Z,1006.01
2023-05-21T03:40:11.829Z,1005.99
2023-05-21T03:40:42.822Z,1006.00
2023-05-21T03:41:13.838Z,1005.99
2023-05-21T03:41:44.330Z,1005.99
2023-05-21T03:42:14.837Z,1005.99
2023-05-21T03:42:45.344Z,1005.98
2023-05-21T03:43:16.421Z,1005.99
2023-05-21T03:43:46.881Z,1005.98
2023-05-21T03:44:17.443Z,1005.97
2023-05-21T03:44:47.957Z,1005.96
2023-05-21T03:45:18.939Z,1006.00
2023-05-21T03:45:49.490Z,1005.96
2023-05-21T03:46:20.004Z,1005.96
2023-05-21T03:46:50.458Z,1005.96
2023-05-21T03:47:21.522Z,1005.94
2023-05-21T03:47:52.016Z,1005.94
2023-05-21T03:48:22.478Z,1005.95
2023-05-21T03:48:52.992Z,1005.92
2023-05-21T03:49:23.560Z,1005.93
2023-05-21T03:49:54.079Z,1005.97
2023-05-21T03:50:24.574Z,1005.93
2023-05-21T03:50:55.086Z,1005.92
2023-05-21T03:51:25.589Z,1005.95
2023-05-21T03:51:56.595Z,1005.92
2023-05-21T03:52:27.099Z,1006.00
2023-05-21T03:52:57.612Z,1005.97
2023-05-21T03:53:28.123Z,1005.94
2023-05-21T03:53:58.632Z,1005.93
2023-05-21T03:54:29.222Z,1005.94
2023-05-21T03:54:59.732Z,1005.94
2023-05-21T03:55:30.252Z,1005.94
2023-05-21T03:56:00.750Z,1005.96
2023-05-21T03:56:31.792Z,1005.95
2023-05-21T03:57:02.265Z,1005.93
2023-05-21T03:57:32.773Z,1005.94
2023-05-21T03:58:03.275Z,1005.93
2023-05-21T03:58:34.269Z,1005.93
2023-05-21T03:59:04.777Z,1005.96
2023-05-21T03:59:35.317Z,1005.98
2023-05-21T04:00:05.808Z,1005.95
2023-05-21T04:00:36.304Z,1005.97
2023-05-21T04:01:07.303Z,1005.94
2023-05-21T04:01:38.296Z,1005.96
2023-05-21T04:02:08.836Z,1005.94
2023-05-21T04:02:39.480Z,1005.91
2023-05-21T04:03:10.124Z,1005.92
2023-05-21T04:03:41.065Z,1005.91
2023-05-21T04:04:11.347Z,1005.93
2023-05-21T04:04:41.993Z,1005.90
2023-05-21T04:05:12.447Z,1005.93
2023-05-21T04:05:42.944Z,1005.93
2023-05-21T04:06:13.455Z,1005.92
2023-05-21T04:06:43.959Z,1006.00
2023-05-21T04:07:14.498Z,1005.96
2023-05-21T04:07:45.045Z,1005.96
2023-05-21T04:08:16.045Z,1005.97
2023-05-21T04:08:47.033Z,1005.96
2023-05-21T04:09:18.029Z,1005.98
2023-05-21T04:09:48.570Z,1005.99
2023-05-21T04:10:19.094Z,1005.99
2023-05-21T04:10:49.608Z,1005.97
2023-05-21T04:11:20.101Z,1005.96
2023-05-21T04:11:50.610Z,1005.98
2023-05-21T04:12:21.126Z,1005.97
2023-05-21T04:12:51.615Z,1005.98
2023-05-21T04:13:22.115Z,1005.98
2023-05-21T04:13:52.644Z,1005.98
2023-05-21T04:14:23.658Z,1005.96
2023-05-21T04:14:54.185Z,1005.99
2023-05-21T04:15:24.684Z,1006.00
2023-05-21T04:15:55.701Z,1005.97
2023-05-21T04:16:26.231Z,1005.98
2023-05-21T04:16:56.700Z,1005.98
2023-05-21T04:17:27.239Z,1005.98
2023-05-21T04:17:57.738Z,1005.97
2023-05-21T04:18:28.272Z,1005.99
2023-05-21T04:18:58.767Z,1005.96
2023-05-21T04:19:29.278Z,1005.97
2023-05-21T04:19:59.983Z,1005.97
2023-05-21T04:20:30.475Z,1005.98
2023-05-21T04:21:01.472Z,1005.99
2023-05-21T04:21:31.995Z,1005.96
2023-05-21T04:22:02.476Z,1005.97
2023-05-21T04:22:33.478Z,1005.97
2023-05-21T04:23:03.990Z,1005.98
2023-05-21T04:23:34.516Z,1005.99
2023-05-21T04:24:05.031Z,1005.98
2023-05-21T04:24:36.020Z,1006.00
2023-05-21T04:25:07.062Z,1006.01
2023-05-21T04:25:37.752Z,1005.99
2023-05-21T04:26:08.288Z,1006.01
2023-05-21T04:26:38.781Z,1006.02
2023-05-21T04:27:09.779Z,1005.99
2023-05-21T04:27:40.268Z,1006.01
2023-05-21T04:28:11.274Z,1005.98
2023-05-21T04:28:41.771Z,1005.99
2023-05-21T04:29:12.268Z,1005.98
2023-05-21T04:29:43.270Z,1005.98
2023-05-21T04:30:13.882Z,1005.99
2023-05-21T04:30:44.366Z,1005.96
2023-05-21T04:31:14.913Z,1005.97
2023-05-21T04:31:45.443Z,1005.96
2023-05-21T04:32:15.927Z,1005.98
2023-05-21T04:32:47.003Z,1005.99
2023-05-21T04:33:17.451Z,1005.97
2023-05-21T04:33:47.953Z,1006.00
2023-05-21T04:34:18.461Z,1006.01
2023-05-21T04:34:48.953Z,1005.96
2023-05-21T04:35:19.513Z,1005.97
2023-05-21T04:35:50.306Z,1005.97
2023-05-21T04:36:20.808Z,1005.97
2023-05-21T04:36:51.315Z,1005.97
2023-05-21T04:37:22.316Z,1005.94
2023-05-21T04:37:53.315Z,1005.98
2023-05-21T04:38:23.810Z,1005.94
2023-05-21T04:38:54.811Z,1005.92
2023-05-21T04:39:25.325Z,1005.93
2023-05-21T04:39:55.843Z,1005.93
2023-05-21T04:40:26.433Z,1005.93
2023-05-21T04:40:56.928Z,1005.94
2023-05-21T04:41:27.927Z,1005.94
2023-05-21T04:41:58.930Z,1005.97
2023-05-21T04:42:29.434Z,1005.99
2023-05-21T04:42:59.949Z,1005.97
2023-05-21T04:43:30.459Z,1005.99
2023-05-21T04:44:01.462Z,1006.01
2023-05-21T04:44:31.971Z,1006.00
2023-05-21T04:45:02.472Z,1006.02
2023-05-21T04:45:33.029Z,1006.03
2023-05-21T04:46:03.533Z,1006.04
2023-05-21T04:46:34.094Z,1006.02
2023-05-21T04:47:04.583Z,1006.06
2023-05-21T04:47:35.113Z,1006.05
2023-05-21T04:48:05.633Z,1006.06
2023-05-21T04:48:36.104Z,1006.06
2023-05-21T04:49:06.603Z,1006.07
2023-05-21T04:49:37.100Z,1006.05
2023-05-21T04:50:07.613Z,1006.07
2023-05-21T04:50:38.158Z,1006.07
2023-05-21T04:51:08.644Z,1006.07
2023-05-21T04:51:39.158Z,1006.05
2023-05-21T04:52:09.680Z,1006.05
2023-05-21T04:52:40.676Z,1006.05
2023-05-21T04:53:11.178Z,1006.07
2023-05-21T04:53:41.689Z,1006.06
2023-05-21T04:54:12.195Z,1006.06
2023-05-21T04:54:42.702Z,1006.06
2023-05-21T04:55:13.206Z,1006.07
2023-05-21T04:55:43.764Z,1006.08
2023-05-21T04:56:14.260Z,1006.10
2023-05-21T04:56:45.263Z,1006.08
2023-05-21T04:57:15.798Z,1006.09
2023-05-21T04:57:46.313Z,1006.10
2023-05-21T04:58:16.815Z,1006.09
2023-05-21T04:58:47.835Z,1006.09
2023-05-21T04:59:18.321Z,1006.07
2023-05-21T04:59:49.343Z,1006.09
2023-05-21T05:00:19.824Z,1006.08
2023-05-21T05:00:50.382Z,1006.09
2023-05-21T05:01:20.945Z,1006.08
2023-05-21T05:01:51.434Z,1006.07
2023-05-21T05:02:21.974Z,1006.08
2023-05-21T05:02:53.045Z,1006.07
2023-05-21T05:03:23.752Z,1006.07
2023-05-21T05:03:54.347Z,1006.08
2023-05-21T05:04:25.028Z,1006.08
2023-05-21T05:04:55.539Z,1006.08
2023-05-21T05:05:26.053Z,1006.08
2023-05-21T05:05:56.692Z,1006.10
2023-05-21T05:06:27.125Z,1006.08
2023-05-21T05:06:58.172Z,1006.09
2023-05-21T05:07:28.648Z,1006.10
2023-05-21T05:07:59.137Z,1006.13
2023-05-21T05:08:29.644Z,1006.10
2023-05-21T05:09:00.168Z,1006.12
2023-05-21T05:09:31.152Z,1006.12
2023-05-21T05:10:01.651Z,1006.12
2023-05-21T05:10:32.680Z,1006.12
2023-05-21T05:11:03.305Z,1006.11
2023-05-21T05:11:33.811Z,1006.11
2023-05-21T05:12:04.303Z,1006.12
2023-05-21T05:12:35.303Z,1006.12
2023-05-21T05:13:05.814Z,1006.11
2023-05-21T05:13:36.326Z,1006.10
2023-05-21T05:14:06.841Z,1006.11
2023-05-21T05:14:37.363Z,1006.10
2023-05-21T05:15:07.864Z,1006.12
2023-05-21T05:15:38.577Z,1006.10
2023-05-21T05:16:09.227Z,1006.13
2023-05-21T05:16:39.755Z,1006.11
2023-05-21T05:17:10.233Z,1006.11
2023-05-21T05:17:40.767Z,1006.11
2023-05-21T05:18:11.266Z,1006.09
2023-05-21T05:18:41.848Z,1006.12
2023-05-21T05:19:12.395Z,1006.11
2023-05-21T05:19:42.858Z,1006.09
2023-05-21T05:20:13.370Z,1006.12
2023-05-21T05:20:43.889Z,1006.13
2023-05-21T05:21:14.461Z,1006.15
2023-05-21T05:21:44.982Z,1006.13
2023-05-21T05:22:15.457Z,1006.15
2023-05-21T05:22:46.454Z,1006.15
2023-05-21T05:23:17.448Z,1006.18
2023-05-21T05:23:47.961Z,1006.17
2023-05-21T05:24:18.475Z,1006.17
2023-05-21T05:24:48.965Z,1006.18
2023-05-21T05:25:19.993Z,1006.19
2023-05-21T05:25:50.498Z,1006.17
2023-05-21T05:26:21.005Z,1006.17
2023-05-21T05:26:51.501Z,1006.18
2023-05-21T05:27:22.001Z,1006.18
2023-05-21T05:27:52.532Z,1006.21
2023-05-21T05:28:23.024Z,1006.20
2023-05-21T05:28:53.523Z,1006.22
2023-05-21T05:29:24.020Z,1006.22
2023-05-21T05:29:54.525Z,1006.23
2023-05-21T05:30:25.033Z,1006.23
2023-05-21T05:30:56.075Z,1006.22
2023-05-21T05:31:26.696Z,1006.23
2023-05-21T05:31:57.240Z,1006.22
2023-05-21T05:32:27.761Z,1006.20
2023-05-21T05:32:58.277Z,1006.23
2023-05-21T05:33:28.798Z,1006.25
2023-05-21T05:33:59.292Z,1006.23
2023-05-21T05:34:29.798Z,1006.22
2023-05-21T05:35:02.198Z,1006.24
2023-05-21T05:35:31.060Z,1006.25
2023-05-21T05:36:01.569Z,1006.24
2023-05-21T05:36:32.631Z,1006.25
2023-05-21T05:37:03.130Z,1006.27
2023-05-21T05:37:33.635Z,1006.25
2023-05-21T05:38:04.155Z,1006.28
2023-05-21T05:38:34.656Z,1006.29
2023-05-21T05:39:05.161Z,1006.29
2023-05-21T05:39:35.655Z,1006.30
2023-05-21T05:40:06.658Z,1006.32
2023-05-21T05:40:37.706Z,1006.31
2023-05-21T05:41:08.173Z,1006.32
2023-05-21T05:41:38.732Z,1006.31
2023-05-21T05:42:09.234Z,1006.33
2023-05-21T05:42:39.750Z,1006.33
2023-05-21T05:43:10.258Z,1006.33
2023-05-21T05:43:41.253Z,1006.31
2023-05-21T05:44:11.761Z,1006.31
2023-05-21T05:44:42.273Z,1006.33
2023-05-21T05:45:12.785Z,1006.32
2023-05-21T05:45:43.283Z,1006.37
2023-05-21T05:46:13.803Z,1006.35
2023-05-21T05:46:44.809Z,1006.39
2023-05-21T05:47:15.313Z,1006.38
2023-05-21T05:47:45.846Z,1006.34
2023-05-21T05:48:16.325Z,1006.36
2023-05-21T05:48:46.832Z,1006.35
2023-05-21T05:49:17.816Z,1006.32
2023-05-21T05:49:48.328Z,1006.30
2023-05-21T05:50:19.317Z,1006.31
2023-05-21T05:50:49.834Z,1006.29
2023-05-21T05:51:20.352Z,1006.27
2023-05-21T05:51:50.953Z,1006.31
2023-05-21T05:52:21.439Z,1006.27
2023-05-21T05:52:52.427Z,1006.33
2023-05-21T05:53:23.436Z,1006.32
2023-05-21T05:53:53.944Z,1006.31
2023-05-21T05:54:24.946Z,1006.34
2023-05-21T05:54:55.441Z,1006.32
2023-05-21T05:55:26.452Z,1006.30
2023-05-21T05:55:56.964Z,1006.31
2023-05-21T05:56:27.476Z,1006.33
2023-05-21T05:56:58.609Z,1006.30
2023-05-21T05:57:29.102Z,1006.29
2023-05-21T05:58:00.117Z,1006.31
2023-05-21T05:58:31.111Z,1006.34
2023-05-21T05:59:01.622Z,1006.30
2023-05-21T05:59:32.123Z,1006.33
2023-05-21T06:00:02.631Z,1006.34
2023-05-21T06:00:33.135Z,1006.36
2023-05-21T06:01:03.645Z,1006.36
2023-05-21T06:01:34.150Z,1006.35
2023-05-21T06:02:04.736Z,1006.36
2023-05-21T06:02:35.314Z,1006.34
2023-05-21T06:03:05.862Z,1006.37
2023-05-21T06:03:36.646Z,1006.33
2023-05-21T06:04:07.160Z,1006.35
2023-05-21T06:04:38.166Z,1006.33
2023-05-21T06:05:08.700Z,1006.31
2023-05-21T06:05:39.448Z,1006.32
2023-05-21T06:06:10.235Z,1006.30
2023-05-21T06:06:40.733Z,1006.32
2023-05-21T06:07:11.803Z,1006.35
2023-05-21T06:07:42.282Z,1006.36
2023-05-21T06:08:13.273Z,1006.37
2023-05-21T06:08:43.786Z,1006.38
2023-05-21T06:09:14.302Z,1006.39
2023-05-21T06:09:44.813Z,1006.38
2023-05-21T06:10:15.349Z,1006.40